sensor_id;sensor_type;location;lat;lon;timestamp;temperature;humidity
64226;DHT22;50545;56.064;26.178;2023-11-22T00:00:45;-6.90;99.90
64226;DHT22;50545;56.064;26.178;2023-11-22T00:03:12;-6.90;99.90
64226;DHT22;50545;56.064;26.178;2023-11-22T00:05:40;-7.00;99.90
64226;DHT22;50545;56.064;26.178;2023-11-22T00:08:07;-7.00;99.90
64226;DHT22;50545;56.064;26.178;2023-11-22T00:10:35;-7.10;99.90
64226;DHT22;50545;56.064;26.178;2023-11-22T00:13:02;-7.10;99.90
64226;DHT22;50545;56.064;26.178;2023-11-22T00:15:29;-7.20;99.90
64226;DHT22;50545;56.064;26.178;2023-11-22T00:17:57;-7.30;99.90
64226;DHT22;50545;56.064;26.178;2023-11-22T00:20:30;-7.30;99.90
64226;DHT22;50545;56.064;26.178;2023-11-22T00:22:58;-7.40;99.90
64226;DHT22;50545;56.064;26.178;2023-11-22T00:25:25;-7.50;99.90
64226;DHT22;50545;56.064;26.178;2023-11-22T00:27:53;-7.50;99.90
64226;DHT22;50545;56.064;26.178;2023-11-22T00:30:20;-7.60;99.90
64226;DHT22;50545;56.064;26.178;2023-11-22T00:32:48;-7.60;99.90
64226;DHT22;50545;56.064;26.178;2023-11-22T00:35:16;-7.70;99.90
64226;DHT22;50545;56.064;26.178;2023-11-22T00:37:43;-7.70;99.90
64226;DHT22;50545;56.064;26.178;2023-11-22T00:40:11;-7.80;99.90
64226;DHT22;50545;56.064;26.178;2023-11-22T00:42:39;-7.80;99.90
64226;DHT22;50545;56.064;26.178;2023-11-22T00:45:09;-7.80;99.90
64226;DHT22;50545;56.064;26.178;2023-11-22T00:47:37;-7.80;99.90
64226;DHT22;50545;56.064;26.178;2023-11-22T00:50:06;-7.90;99.90
64226;DHT22;50545;56.064;26.178;2023-11-22T00:52:35;-7.90;99.90
64226;DHT22;50545;56.064;26.178;2023-11-22T00:55:03;-7.90;99.90
64226;DHT22;50545;56.064;26.178;2023-11-22T00:57:30;-7.90;99.90
64226;DHT22;50545;56.064;26.178;2023-11-22T00:59:58;-7.90;99.90
64226;DHT22;50545;56.064;26.178;2023-11-22T01:02:25;-7.90;99.90
64226;DHT22;50545;56.064;26.178;2023-11-22T01:04:53;-8.00;99.90
64226;DHT22;50545;56.064;26.178;2023-11-22T01:07:20;-8.00;99.90
64226;DHT22;50545;56.064;26.178;2023-11-22T01:09:48;-8.00;99.90
64226;DHT22;50545;56.064;26.178;2023-11-22T01:12:15;-8.00;99.90
64226;DHT22;50545;56.064;26.178;2023-11-22T01:14:43;-8.10;99.90
64226;DHT22;50545;56.064;26.178;2023-11-22T01:17:10;-8.10;99.90
64226;DHT22;50545;56.064;26.178;2023-11-22T01:19:37;-8.20;99.90
64226;DHT22;50545;56.064;26.178;2023-11-22T01:22:05;-8.20;99.90
64226;DHT22;50545;56.064;26.178;2023-11-22T01:24:33;-8.20;99.90
64226;DHT22;50545;56.064;26.178;2023-11-22T01:27:00;-8.30;99.90
64226;DHT22;50545;56.064;26.178;2023-11-22T01:29:27;-8.30;99.90
64226;DHT22;50545;56.064;26.178;2023-11-22T01:31:56;-8.30;99.90
64226;DHT22;50545;56.064;26.178;2023-11-22T01:34:23;-8.40;99.90
64226;DHT22;50545;56.064;26.178;2023-11-22T01:36:51;-8.40;99.90
64226;DHT22;50545;56.064;26.178;2023-11-22T01:39:19;-8.50;99.90
64226;DHT22;50545;56.064;26.178;2023-11-22T01:41:46;-8.50;99.90
64226;DHT22;50545;56.064;26.178;2023-11-22T01:44:16;-8.50;99.90
64226;DHT22;50545;56.064;26.178;2023-11-22T01:46:45;-8.60;99.90
64226;DHT22;50545;56.064;26.178;2023-11-22T01:49:13;-8.60;99.90
64226;DHT22;50545;56.064;26.178;2023-11-22T01:51:41;-8.60;99.90
64226;DHT22;50545;56.064;26.178;2023-11-22T01:54:08;-8.70;99.90
64226;DHT22;50545;56.064;26.178;2023-11-22T01:56:37;-8.70;99.90
64226;DHT22;50545;56.064;26.178;2023-11-22T01:59:05;-8.70;99.90
64226;DHT22;50545;56.064;26.178;2023-11-22T02:01:34;-8.80;99.90
64226;DHT22;50545;56.064;26.178;2023-11-22T02:04:02;-8.80;99.90
64226;DHT22;50545;56.064;26.178;2023-11-22T02:06:30;-8.80;99.90
64226;DHT22;50545;56.064;26.178;2023-11-22T02:08:58;-8.90;99.90
64226;DHT22;50545;56.064;26.178;2023-11-22T02:11:26;-8.90;99.90
64226;DHT22;50545;56.064;26.178;2023-11-22T02:13:54;-8.90;99.90
64226;DHT22;50545;56.064;26.178;2023-11-22T02:16:23;-9.00;99.90
64226;DHT22;50545;56.064;26.178;2023-11-22T02:18:51;-9.00;99.90
64226;DHT22;50545;56.064;26.178;2023-11-22T02:21:18;-9.00;99.90
64226;DHT22;50545;56.064;26.178;2023-11-22T02:23:46;-9.10;99.90
64226;DHT22;50545;56.064;26.178;2023-11-22T02:26:14;-9.10;99.90
64226;DHT22;50545;56.064;26.178;2023-11-22T02:28:45;-9.20;99.90
64226;DHT22;50545;56.064;26.178;2023-11-22T02:31:13;-9.20;99.90
64226;DHT22;50545;56.064;26.178;2023-11-22T02:33:40;-9.30;99.90
64226;DHT22;50545;56.064;26.178;2023-11-22T02:36:09;-9.30;99.90
64226;DHT22;50545;56.064;26.178;2023-11-22T02:38:39;-9.20;99.90
64226;DHT22;50545;56.064;26.178;2023-11-22T02:41:08;-9.20;99.90
64226;DHT22;50545;56.064;26.178;2023-11-22T02:43:36;-9.30;99.90
64226;DHT22;50545;56.064;26.178;2023-11-22T02:46:04;-9.30;99.90
64226;DHT22;50545;56.064;26.178;2023-11-22T02:48:31;-9.30;99.90
64226;DHT22;50545;56.064;26.178;2023-11-22T02:50:59;-9.30;99.90
64226;DHT22;50545;56.064;26.178;2023-11-22T02:53:27;-9.30;99.90
64226;DHT22;50545;56.064;26.178;2023-11-22T02:55:54;-9.30;99.90
64226;DHT22;50545;56.064;26.178;2023-11-22T02:58:22;-9.30;99.90
64226;DHT22;50545;56.064;26.178;2023-11-22T03:00:50;-9.30;99.90
64226;DHT22;50545;56.064;26.178;2023-11-22T03:03:20;-9.30;99.90
64226;DHT22;50545;56.064;26.178;2023-11-22T03:05:48;-9.30;99.90
64226;DHT22;50545;56.064;26.178;2023-11-22T03:08:16;-9.30;99.90
64226;DHT22;50545;56.064;26.178;2023-11-22T03:10:43;-9.30;99.90
64226;DHT22;50545;56.064;26.178;2023-11-22T03:13:10;-9.20;99.90
64226;DHT22;50545;56.064;26.178;2023-11-22T03:15:38;-9.20;99.90
64226;DHT22;50545;56.064;26.178;2023-11-22T03:18:05;-9.10;99.90
64226;DHT22;50545;56.064;26.178;2023-11-22T03:20:33;-9.10;99.90
64226;DHT22;50545;56.064;26.178;2023-11-22T03:23:01;-9.00;99.90
64226;DHT22;50545;56.064;26.178;2023-11-22T03:25:29;-9.00;99.90
64226;DHT22;50545;56.064;26.178;2023-11-22T03:27:56;-8.90;99.90
64226;DHT22;50545;56.064;26.178;2023-11-22T03:30:24;-8.90;99.90
64226;DHT22;50545;56.064;26.178;2023-11-22T03:32:51;-8.90;99.90
64226;DHT22;50545;56.064;26.178;2023-11-22T03:35:19;-8.80;99.90
64226;DHT22;50545;56.064;26.178;2023-11-22T03:37:47;-8.80;99.90
64226;DHT22;50545;56.064;26.178;2023-11-22T03:40:14;-8.80;99.90
64226;DHT22;50545;56.064;26.178;2023-11-22T03:42:42;-8.80;99.90
64226;DHT22;50545;56.064;26.178;2023-11-22T03:45:09;-8.80;99.90
64226;DHT22;50545;56.064;26.178;2023-11-22T03:47:37;-8.80;99.90
64226;DHT22;50545;56.064;26.178;2023-11-22T03:50:06;-8.80;99.90
64226;DHT22;50545;56.064;26.178;2023-11-22T03:52:34;-8.70;99.90
64226;DHT22;50545;56.064;26.178;2023-11-22T03:55:01;-8.70;99.90
64226;DHT22;50545;56.064;26.178;2023-11-22T03:57:30;-8.70;99.90
64226;DHT22;50545;56.064;26.178;2023-11-22T03:59:58;-8.80;99.90
64226;DHT22;50545;56.064;26.178;2023-11-22T04:02:26;-8.80;99.90
64226;DHT22;50545;56.064;26.178;2023-11-22T04:04:56;-8.70;99.90
64226;DHT22;50545;56.064;26.178;2023-11-22T04:07:24;-8.70;99.90
64226;DHT22;50545;56.064;26.178;2023-11-22T04:09:51;-8.70;99.90
64226;DHT22;50545;56.064;26.178;2023-11-22T04:12:19;-8.70;99.90
64226;DHT22;50545;56.064;26.178;2023-11-22T04:14:46;-8.70;99.90
64226;DHT22;50545;56.064;26.178;2023-11-22T04:17:14;-8.70;99.90
64226;DHT22;50545;56.064;26.178;2023-11-22T04:19:42;-8.70;99.90
64226;DHT22;50545;56.064;26.178;2023-11-22T04:22:10;-8.70;99.90
64226;DHT22;50545;56.064;26.178;2023-11-22T04:24:38;-8.70;99.90
64226;DHT22;50545;56.064;26.178;2023-11-22T04:27:06;-8.70;99.90
64226;DHT22;50545;56.064;26.178;2023-11-22T04:29:34;-8.60;99.90
64226;DHT22;50545;56.064;26.178;2023-11-22T04:32:02;-8.60;99.90
64226;DHT22;50545;56.064;26.178;2023-11-22T04:34:29;-8.60;99.90
64226;DHT22;50545;56.064;26.178;2023-11-22T04:36:57;-8.50;99.90
64226;DHT22;50545;56.064;26.178;2023-11-22T04:39:24;-8.50;99.90
64226;DHT22;50545;56.064;26.178;2023-11-22T04:41:52;-8.50;99.90
64226;DHT22;50545;56.064;26.178;2023-11-22T04:44:19;-8.50;99.90
64226;DHT22;50545;56.064;26.178;2023-11-22T04:46:47;-8.50;99.90
64226;DHT22;50545;56.064;26.178;2023-11-22T04:49:14;-8.50;99.90
64226;DHT22;50545;56.064;26.178;2023-11-22T04:51:42;-8.40;99.90
64226;DHT22;50545;56.064;26.178;2023-11-22T04:54:11;-8.40;99.90
64226;DHT22;50545;56.064;26.178;2023-11-22T04:56:38;-8.40;99.90
64226;DHT22;50545;56.064;26.178;2023-11-22T04:59:06;-8.40;99.90
64226;DHT22;50545;56.064;26.178;2023-11-22T05:01:34;-8.30;99.90
64226;DHT22;50545;56.064;26.178;2023-11-22T05:04:02;-8.30;99.90
64226;DHT22;50545;56.064;26.178;2023-11-22T05:06:30;-8.20;99.90
64226;DHT22;50545;56.064;26.178;2023-11-22T05:08:57;-8.20;99.90
64226;DHT22;50545;56.064;26.178;2023-11-22T05:11:25;-8.20;99.90
64226;DHT22;50545;56.064;26.178;2023-11-22T05:13:52;-8.10;99.90
64226;DHT22;50545;56.064;26.178;2023-11-22T05:16:20;-8.10;99.90
64226;DHT22;50545;56.064;26.178;2023-11-22T05:18:47;-8.00;99.90
64226;DHT22;50545;56.064;26.178;2023-11-22T05:21:15;-8.00;99.90
64226;DHT22;50545;56.064;26.178;2023-11-22T05:23:42;-8.00;99.90
64226;DHT22;50545;56.064;26.178;2023-11-22T05:26:12;-8.00;99.90
64226;DHT22;50545;56.064;26.178;2023-11-22T05:28:39;-8.00;99.90
64226;DHT22;50545;56.064;26.178;2023-11-22T05:31:07;-7.90;99.90
64226;DHT22;50545;56.064;26.178;2023-11-22T05:33:34;-7.90;99.90
64226;DHT22;50545;56.064;26.178;2023-11-22T05:36:02;-7.90;99.90
64226;DHT22;50545;56.064;26.178;2023-11-22T05:38:30;-7.80;99.90
64226;DHT22;50545;56.064;26.178;2023-11-22T05:40:58;-7.80;99.90
64226;DHT22;50545;56.064;26.178;2023-11-22T05:43:25;-7.80;99.90
64226;DHT22;50545;56.064;26.178;2023-11-22T05:45:54;-7.80;99.90
64226;DHT22;50545;56.064;26.178;2023-11-22T05:48:22;-7.80;99.90
64226;DHT22;50545;56.064;26.178;2023-11-22T05:50:49;-7.70;99.90
64226;DHT22;50545;56.064;26.178;2023-11-22T05:53:17;-7.70;99.90
64226;DHT22;50545;56.064;26.178;2023-11-22T05:55:47;-7.80;99.90
64226;DHT22;50545;56.064;26.178;2023-11-22T05:58:16;-7.70;99.90
64226;DHT22;50545;56.064;26.178;2023-11-22T06:00:47;-7.70;99.90
64226;DHT22;50545;56.064;26.178;2023-11-22T06:03:14;-7.70;99.90
64226;DHT22;50545;56.064;26.178;2023-11-22T06:05:42;-7.70;99.90
64226;DHT22;50545;56.064;26.178;2023-11-22T06:08:10;-7.70;99.90
64226;DHT22;50545;56.064;26.178;2023-11-22T06:10:37;-7.70;99.90
64226;DHT22;50545;56.064;26.178;2023-11-22T06:13:09;-7.70;99.90
64226;DHT22;50545;56.064;26.178;2023-11-22T06:15:37;-7.80;99.90
64226;DHT22;50545;56.064;26.178;2023-11-22T06:18:05;-7.80;99.90
64226;DHT22;50545;56.064;26.178;2023-11-22T06:20:32;-7.80;99.90
64226;DHT22;50545;56.064;26.178;2023-11-22T06:23:00;-7.90;99.90
64226;DHT22;50545;56.064;26.178;2023-11-22T06:25:28;-7.90;99.90
64226;DHT22;50545;56.064;26.178;2023-11-22T06:27:55;-7.90;99.90
64226;DHT22;50545;56.064;26.178;2023-11-22T06:30:25;-8.00;99.90
64226;DHT22;50545;56.064;26.178;2023-11-22T06:32:52;-8.00;99.90
64226;DHT22;50545;56.064;26.178;2023-11-22T06:35:20;-8.10;99.90
64226;DHT22;50545;56.064;26.178;2023-11-22T06:37:48;-8.10;99.90
64226;DHT22;50545;56.064;26.178;2023-11-22T06:40:16;-8.10;99.90
64226;DHT22;50545;56.064;26.178;2023-11-22T06:42:44;-8.10;99.90
64226;DHT22;50545;56.064;26.178;2023-11-22T06:45:11;-8.10;99.90
64226;DHT22;50545;56.064;26.178;2023-11-22T06:47:45;-8.20;99.90
64226;DHT22;50545;56.064;26.178;2023-11-22T06:50:13;-8.20;99.90
64226;DHT22;50545;56.064;26.178;2023-11-22T06:52:42;-8.20;99.90
64226;DHT22;50545;56.064;26.178;2023-11-22T06:55:09;-8.20;99.90
64226;DHT22;50545;56.064;26.178;2023-11-22T06:57:38;-8.20;99.90
64226;DHT22;50545;56.064;26.178;2023-11-22T07:00:06;-8.10;99.90
64226;DHT22;50545;56.064;26.178;2023-11-22T07:02:37;-8.10;99.90
64226;DHT22;50545;56.064;26.178;2023-11-22T07:05:05;-8.00;99.90
64226;DHT22;50545;56.064;26.178;2023-11-22T07:07:37;-7.90;99.90
64226;DHT22;50545;56.064;26.178;2023-11-22T07:10:05;-7.80;99.90
64226;DHT22;50545;56.064;26.178;2023-11-22T07:12:33;-7.70;99.90
64226;DHT22;50545;56.064;26.178;2023-11-22T07:15:02;-7.60;99.90
64226;DHT22;50545;56.064;26.178;2023-11-22T07:17:30;-7.50;99.90
64226;DHT22;50545;56.064;26.178;2023-11-22T07:19:57;-7.40;99.90
64226;DHT22;50545;56.064;26.178;2023-11-22T07:22:25;-7.40;99.90
64226;DHT22;50545;56.064;26.178;2023-11-22T07:24:53;-7.30;99.90
64226;DHT22;50545;56.064;26.178;2023-11-22T07:27:22;-7.20;99.90
64226;DHT22;50545;56.064;26.178;2023-11-22T07:29:49;-7.20;99.90
64226;DHT22;50545;56.064;26.178;2023-11-22T07:32:19;-7.10;99.90
64226;DHT22;50545;56.064;26.178;2023-11-22T07:34:48;-7.10;99.90
64226;DHT22;50545;56.064;26.178;2023-11-22T07:37:15;-7.10;99.90
64226;DHT22;50545;56.064;26.178;2023-11-22T07:39:43;-7.00;99.90
64226;DHT22;50545;56.064;26.178;2023-11-22T07:42:11;-7.00;99.90
64226;DHT22;50545;56.064;26.178;2023-11-22T07:44:39;-7.00;99.90
64226;DHT22;50545;56.064;26.178;2023-11-22T07:47:07;-7.00;99.90
64226;DHT22;50545;56.064;26.178;2023-11-22T07:49:40;-7.00;99.90
64226;DHT22;50545;56.064;26.178;2023-11-22T07:52:09;-7.00;99.90
64226;DHT22;50545;56.064;26.178;2023-11-22T07:54:41;-7.10;99.90
64226;DHT22;50545;56.064;26.178;2023-11-22T07:57:08;-7.10;99.90
64226;DHT22;50545;56.064;26.178;2023-11-22T07:59:36;-7.10;99.90
64226;DHT22;50545;56.064;26.178;2023-11-22T08:02:05;-7.10;99.90
64226;DHT22;50545;56.064;26.178;2023-11-22T08:04:38;-7.10;99.90
64226;DHT22;50545;56.064;26.178;2023-11-22T08:07:06;-7.10;99.90
64226;DHT22;50545;56.064;26.178;2023-11-22T08:09:34;-7.10;99.90
64226;DHT22;50545;56.064;26.178;2023-11-22T08:12:01;-7.10;99.90
64226;DHT22;50545;56.064;26.178;2023-11-22T08:14:32;-7.10;99.90
64226;DHT22;50545;56.064;26.178;2023-11-22T08:17:00;-7.10;99.90
64226;DHT22;50545;56.064;26.178;2023-11-22T08:19:27;-7.10;99.90
64226;DHT22;50545;56.064;26.178;2023-11-22T08:21:55;-7.20;99.90
64226;DHT22;50545;56.064;26.178;2023-11-22T08:24:22;-7.20;99.90
64226;DHT22;50545;56.064;26.178;2023-11-22T08:26:50;-7.10;99.90
64226;DHT22;50545;56.064;26.178;2023-11-22T08:29:17;-7.10;99.90
64226;DHT22;50545;56.064;26.178;2023-11-22T08:31:45;-7.10;99.90
64226;DHT22;50545;56.064;26.178;2023-11-22T08:34:12;-7.10;99.90
64226;DHT22;50545;56.064;26.178;2023-11-22T08:36:40;-7.00;99.90
64226;DHT22;50545;56.064;26.178;2023-11-22T08:39:07;-7.00;99.90
64226;DHT22;50545;56.064;26.178;2023-11-22T08:41:35;-6.90;99.90
64226;DHT22;50545;56.064;26.178;2023-11-22T08:44:02;-6.90;99.90
64226;DHT22;50545;56.064;26.178;2023-11-22T08:46:31;-6.90;99.90
64226;DHT22;50545;56.064;26.178;2023-11-22T08:48:59;-6.80;99.90
64226;DHT22;50545;56.064;26.178;2023-11-22T08:51:27;-6.70;99.90
64226;DHT22;50545;56.064;26.178;2023-11-22T08:53:54;-6.70;99.90
64226;DHT22;50545;56.064;26.178;2023-11-22T08:56:22;-6.60;99.90
64226;DHT22;50545;56.064;26.178;2023-11-22T08:58:50;-6.50;99.90
64226;DHT22;50545;56.064;26.178;2023-11-22T09:01:17;-6.50;99.90
64226;DHT22;50545;56.064;26.178;2023-11-22T09:03:45;-6.50;99.90
64226;DHT22;50545;56.064;26.178;2023-11-22T09:06:13;-6.40;99.90
64226;DHT22;50545;56.064;26.178;2023-11-22T09:08:42;-6.30;99.90
64226;DHT22;50545;56.064;26.178;2023-11-22T09:11:09;-6.30;99.90
64226;DHT22;50545;56.064;26.178;2023-11-22T09:13:37;-6.20;99.90
64226;DHT22;50545;56.064;26.178;2023-11-22T09:16:05;-6.20;99.90
64226;DHT22;50545;56.064;26.178;2023-11-22T09:18:33;-6.10;99.90
64226;DHT22;50545;56.064;26.178;2023-11-22T09:21:00;-6.10;99.90
64226;DHT22;50545;56.064;26.178;2023-11-22T09:23:28;-6.10;99.90
64226;DHT22;50545;56.064;26.178;2023-11-22T09:25:57;-5.90;99.90
64226;DHT22;50545;56.064;26.178;2023-11-22T09:28:24;-5.90;99.90
64226;DHT22;50545;56.064;26.178;2023-11-22T09:30:52;-5.80;99.90
64226;DHT22;50545;56.064;26.178;2023-11-22T09:33:20;-5.70;99.90
64226;DHT22;50545;56.064;26.178;2023-11-22T09:35:47;-5.70;99.90
64226;DHT22;50545;56.064;26.178;2023-11-22T09:38:15;-5.60;99.90
64226;DHT22;50545;56.064;26.178;2023-11-22T09:40:50;-5.60;99.90
64226;DHT22;50545;56.064;26.178;2023-11-22T09:43:18;-5.50;99.90
64226;DHT22;50545;56.064;26.178;2023-11-22T09:45:48;-5.50;99.90
64226;DHT22;50545;56.064;26.178;2023-11-22T09:48:23;-5.40;99.90
64226;DHT22;50545;56.064;26.178;2023-11-22T09:53:58;-5.30;99.90
64226;DHT22;50545;56.064;26.178;2023-11-22T09:56:28;-5.20;99.90
64226;DHT22;50545;56.064;26.178;2023-11-22T09:58:57;-5.20;99.90
64226;DHT22;50545;56.064;26.178;2023-11-22T10:01:28;-5.10;99.90
64226;DHT22;50545;56.064;26.178;2023-11-22T10:03:58;-5.10;99.90
64226;DHT22;50545;56.064;26.178;2023-11-22T10:06:27;-5.00;99.90
64226;DHT22;50545;56.064;26.178;2023-11-22T10:08:58;-5.00;99.90
64226;DHT22;50545;56.064;26.178;2023-11-22T10:11:26;-5.00;99.90
64226;DHT22;50545;56.064;26.178;2023-11-22T10:13:56;-5.00;99.90
64226;DHT22;50545;56.064;26.178;2023-11-22T10:16:24;-5.00;99.90
64226;DHT22;50545;56.064;26.178;2023-11-22T10:18:51;-5.00;99.90
64226;DHT22;50545;56.064;26.178;2023-11-22T10:23:48;-4.90;99.90
64226;DHT22;50545;56.064;26.178;2023-11-22T10:26:16;-4.90;99.90
64226;DHT22;50545;56.064;26.178;2023-11-22T10:28:44;-4.90;99.90
64226;DHT22;50545;56.064;26.178;2023-11-22T10:31:12;-4.80;99.90
64226;DHT22;50545;56.064;26.178;2023-11-22T10:33:42;-4.80;99.90
64226;DHT22;50545;56.064;26.178;2023-11-22T10:36:10;-4.80;99.90
64226;DHT22;50545;56.064;26.178;2023-11-22T10:38:37;-4.90;99.90
64226;DHT22;50545;56.064;26.178;2023-11-22T10:41:06;-4.80;99.90
64226;DHT22;50545;56.064;26.178;2023-11-22T10:43:35;-4.80;99.90
64226;DHT22;50545;56.064;26.178;2023-11-22T10:46:03;-4.80;99.90
64226;DHT22;50545;56.064;26.178;2023-11-22T10:48:33;-4.70;99.90
64226;DHT22;50545;56.064;26.178;2023-11-22T10:51:02;-4.70;99.90
64226;DHT22;50545;56.064;26.178;2023-11-22T10:53:34;-4.60;99.90
64226;DHT22;50545;56.064;26.178;2023-11-22T10:56:14;-4.60;99.90
64226;DHT22;50545;56.064;26.178;2023-11-22T10:58:47;-4.50;99.90
64226;DHT22;50545;56.064;26.178;2023-11-22T11:01:16;-4.50;99.90
64226;DHT22;50545;56.064;26.178;2023-11-22T11:03:56;-4.40;99.90
64226;DHT22;50545;56.064;26.178;2023-11-22T11:06:33;-4.40;99.90
64226;DHT22;50545;56.064;26.178;2023-11-22T11:09:06;-4.30;99.90
64226;DHT22;50545;56.064;26.178;2023-11-22T11:11:37;-4.30;99.90
64226;DHT22;50545;56.064;26.178;2023-11-22T11:14:05;-4.20;99.90
64226;DHT22;50545;56.064;26.178;2023-11-22T11:16:38;-4.20;99.90
64226;DHT22;50545;56.064;26.178;2023-11-22T11:19:09;-4.20;99.90
64226;DHT22;50545;56.064;26.178;2023-11-22T11:21:37;-4.10;99.90
64226;DHT22;50545;56.064;26.178;2023-11-22T11:24:06;-4.10;99.90
64226;DHT22;50545;56.064;26.178;2023-11-22T11:26:34;-4.10;99.90
64226;DHT22;50545;56.064;26.178;2023-11-22T11:29:02;-4.00;99.90
64226;DHT22;50545;56.064;26.178;2023-11-22T11:31:32;-4.00;99.90
64226;DHT22;50545;56.064;26.178;2023-11-22T11:34:06;-4.00;99.90
64226;DHT22;50545;56.064;26.178;2023-11-22T11:36:37;-3.90;99.90
64226;DHT22;50545;56.064;26.178;2023-11-22T11:39:06;-3.90;99.90
64226;DHT22;50545;56.064;26.178;2023-11-22T11:41:42;-3.90;99.90
64226;DHT22;50545;56.064;26.178;2023-11-22T11:44:11;-3.80;99.90
64226;DHT22;50545;56.064;26.178;2023-11-22T11:46:40;-3.80;99.90
64226;DHT22;50545;56.064;26.178;2023-11-22T11:49:09;-3.70;99.90
64226;DHT22;50545;56.064;26.178;2023-11-22T11:51:38;-3.70;99.90
64226;DHT22;50545;56.064;26.178;2023-11-22T11:54:06;-3.70;99.90
64226;DHT22;50545;56.064;26.178;2023-11-22T11:56:34;-3.60;99.90
64226;DHT22;50545;56.064;26.178;2023-11-22T11:59:03;-3.60;99.20
64226;DHT22;50545;56.064;26.178;2023-11-22T12:01:30;-3.60;99.20
64226;DHT22;50545;56.064;26.178;2023-11-22T12:04:01;-3.60;99.20
64226;DHT22;50545;56.064;26.178;2023-11-22T12:06:29;-3.60;99.20
64226;DHT22;50545;56.064;26.178;2023-11-22T12:08:58;-3.60;98.90
64226;DHT22;50545;56.064;26.178;2023-11-22T12:11:25;-3.50;99.30
64226;DHT22;50545;56.064;26.178;2023-11-22T12:13:53;-3.60;98.70
64226;DHT22;50545;56.064;26.178;2023-11-22T12:16:22;-3.60;98.60
64226;DHT22;50545;56.064;26.178;2023-11-22T12:18:50;-3.60;98.70
64226;DHT22;50545;56.064;26.178;2023-11-22T12:21:19;-3.60;99.00
64226;DHT22;50545;56.064;26.178;2023-11-22T12:23:47;-3.60;99.10
64226;DHT22;50545;56.064;26.178;2023-11-22T12:26:19;-3.60;99.30
64226;DHT22;50545;56.064;26.178;2023-11-22T12:28:48;-3.60;98.70
64226;DHT22;50545;56.064;26.178;2023-11-22T12:31:30;-3.60;98.20
64226;DHT22;50545;56.064;26.178;2023-11-22T12:34:04;-3.70;98.30
64226;DHT22;50545;56.064;26.178;2023-11-22T12:36:33;-3.70;98.40
64226;DHT22;50545;56.064;26.178;2023-11-22T12:39:02;-3.70;98.40
64226;DHT22;50545;56.064;26.178;2023-11-22T12:41:31;-3.70;98.30
64226;DHT22;50545;56.064;26.178;2023-11-22T12:44:06;-3.70;98.30
64226;DHT22;50545;56.064;26.178;2023-11-22T12:46:52;-3.70;98.30
64226;DHT22;50545;56.064;26.178;2023-11-22T12:49:25;-3.70;98.30
64226;DHT22;50545;56.064;26.178;2023-11-22T12:51:55;-3.70;98.40
64226;DHT22;50545;56.064;26.178;2023-11-22T12:54:24;-3.80;98.50
64226;DHT22;50545;56.064;26.178;2023-11-22T12:56:53;-3.80;98.70
64226;DHT22;50545;56.064;26.178;2023-11-22T12:59:27;-3.80;98.70
64226;DHT22;50545;56.064;26.178;2023-11-22T13:01:55;-3.80;98.60
64226;DHT22;50545;56.064;26.178;2023-11-22T13:04:23;-3.80;98.60
64226;DHT22;50545;56.064;26.178;2023-11-22T13:06:51;-3.80;98.60
64226;DHT22;50545;56.064;26.178;2023-11-22T13:09:19;-3.80;98.50
64226;DHT22;50545;56.064;26.178;2023-11-22T13:11:46;-3.80;98.50
64226;DHT22;50545;56.064;26.178;2023-11-22T13:14:14;-3.90;98.60
64226;DHT22;50545;56.064;26.178;2023-11-22T13:16:42;-4.00;98.60
64226;DHT22;50545;56.064;26.178;2023-11-22T13:19:10;-4.00;98.80
64226;DHT22;50545;56.064;26.178;2023-11-22T13:21:37;-4.10;99.00
64226;DHT22;50545;56.064;26.178;2023-11-22T13:24:05;-4.10;99.10
64226;DHT22;50545;56.064;26.178;2023-11-22T13:26:34;-4.20;99.10
64226;DHT22;50545;56.064;26.178;2023-11-22T13:29:02;-4.20;99.30
64226;DHT22;50545;56.064;26.178;2023-11-22T13:31:29;-4.30;99.40
64226;DHT22;50545;56.064;26.178;2023-11-22T13:33:57;-4.40;99.60
64226;DHT22;50545;56.064;26.178;2023-11-22T13:36:24;-4.40;99.90
64226;DHT22;50545;56.064;26.178;2023-11-22T13:38:52;-4.40;99.90
64226;DHT22;50545;56.064;26.178;2023-11-22T13:41:22;-4.50;99.90
64226;DHT22;50545;56.064;26.178;2023-11-22T13:43:52;-4.50;99.90
64226;DHT22;50545;56.064;26.178;2023-11-22T13:46:20;-4.50;99.90
64226;DHT22;50545;56.064;26.178;2023-11-22T13:48:47;-4.60;99.90
64226;DHT22;50545;56.064;26.178;2023-11-22T13:51:15;-4.60;99.90
64226;DHT22;50545;56.064;26.178;2023-11-22T13:53:42;-4.60;99.90
64226;DHT22;50545;56.064;26.178;2023-11-22T13:56:16;-4.70;99.90
64226;DHT22;50545;56.064;26.178;2023-11-22T13:58:45;-4.80;99.90
64226;DHT22;50545;56.064;26.178;2023-11-22T14:01:12;-4.80;99.90
64226;DHT22;50545;56.064;26.178;2023-11-22T14:03:44;-4.90;99.90
64226;DHT22;50545;56.064;26.178;2023-11-22T14:06:12;-5.00;99.90
64226;DHT22;50545;56.064;26.178;2023-11-22T14:08:43;-5.10;99.90
64226;DHT22;50545;56.064;26.178;2023-11-22T14:11:12;-5.20;99.90
64226;DHT22;50545;56.064;26.178;2023-11-22T14:13:40;-5.30;99.90
64226;DHT22;50545;56.064;26.178;2023-11-22T14:16:07;-5.40;99.90
64226;DHT22;50545;56.064;26.178;2023-11-22T14:18:36;-5.40;99.90
64226;DHT22;50545;56.064;26.178;2023-11-22T14:21:03;-5.50;99.90
64226;DHT22;50545;56.064;26.178;2023-11-22T14:23:31;-5.60;99.90
64226;DHT22;50545;56.064;26.178;2023-11-22T14:25:59;-5.70;99.90
64226;DHT22;50545;56.064;26.178;2023-11-22T14:28:27;-5.70;99.90
64226;DHT22;50545;56.064;26.178;2023-11-22T14:30:55;-5.80;99.90
64226;DHT22;50545;56.064;26.178;2023-11-22T14:33:23;-5.90;99.90
64226;DHT22;50545;56.064;26.178;2023-11-22T14:35:50;-6.00;99.90
64226;DHT22;50545;56.064;26.178;2023-11-22T14:38:17;-6.00;99.90
64226;DHT22;50545;56.064;26.178;2023-11-22T14:40:45;-6.10;99.90
64226;DHT22;50545;56.064;26.178;2023-11-22T14:43:13;-6.20;99.90
64226;DHT22;50545;56.064;26.178;2023-11-22T14:45:40;-6.20;99.90
64226;DHT22;50545;56.064;26.178;2023-11-22T14:48:09;-6.30;99.90
64226;DHT22;50545;56.064;26.178;2023-11-22T14:50:37;-6.40;99.90
64226;DHT22;50545;56.064;26.178;2023-11-22T14:53:05;-6.50;99.90
64226;DHT22;50545;56.064;26.178;2023-11-22T14:55:34;-6.50;99.90
64226;DHT22;50545;56.064;26.178;2023-11-22T14:58:06;-6.50;99.90
64226;DHT22;50545;56.064;26.178;2023-11-22T15:00:34;-6.50;99.90
64226;DHT22;50545;56.064;26.178;2023-11-22T15:03:01;-6.50;99.90
64226;DHT22;50545;56.064;26.178;2023-11-22T15:05:29;-6.60;99.90
64226;DHT22;50545;56.064;26.178;2023-11-22T15:07:57;-6.60;99.90
64226;DHT22;50545;56.064;26.178;2023-11-22T15:10:25;-6.70;99.90
64226;DHT22;50545;56.064;26.178;2023-11-22T15:12:53;-6.70;99.90
64226;DHT22;50545;56.064;26.178;2023-11-22T15:15:22;-6.80;99.90
64226;DHT22;50545;56.064;26.178;2023-11-22T15:17:53;-6.90;99.90
64226;DHT22;50545;56.064;26.178;2023-11-22T15:20:21;-7.00;99.90
64226;DHT22;50545;56.064;26.178;2023-11-22T15:22:49;-7.10;99.90
64226;DHT22;50545;56.064;26.178;2023-11-22T15:25:17;-7.20;99.90
64226;DHT22;50545;56.064;26.178;2023-11-22T15:27:45;-7.20;99.90